Tiempo atmosférico en la estación meteorológica de Grazalema, Cádiz (900 m.)



Fecha
DESCASC
Temp. máxima en grados centígrados (hora)
DESCASC
Temp. mínima en grados centígrados (hora)
DESCASC
Temp. media en grados centígrados
DESCASC
Racha de viento máxima en m/sg (hora)
DESCASC
Velocidad máxima media en intervalos de 10 minutos(hora)
DESCASC
Precipitaciones diarias en mm
DESCASC
Precipitaciones de 00:00 a 06:00 en mm
DESCASC
Precipitaciones de 06:00 a 12:00 en mm
DESCASC
Precipitaciones de 12:00 a 18:00 en mm
DESCASC
Precipitaciones de 18:00 a 24:00 en mm
DESCASC
15-08-2019 32.6 (14:40) 18 (07:10) 25.3 6.39 (12:10) 2.78 (12:10) 0 0 0 0 0
14-08-2019 30.8 (16:10) 16.3 (00:00) 23.5 5.83 (12:10) 2.78 (11:00) 0 0 0 0 0
13-08-2019 29.8 (16:00) 15.5 (00:00) 22.6 5.83 (18:10) 2.78 (14:20) 0 0 0 0 0
12-08-2019 27.5 (17:20) 12.7 (00:00) 20.1 7.5 (14:20) 3.33 (13:30) 0 0 0 0 0
11-08-2019 27.3 (15:40) 17 (00:00) 22.1 6.67 (14:10) 3.33 (15:10) 0 0 0 0 0
10-08-2019 30.7 (15:40) 17.7 (00:00) 24.2 6.39 (20:00) 3.33 (21:40) 0 0 0 0 0
09-08-2019 29.9 (16:20) 17.4 (00:00) 23.6 6.67 (17:00) 2.78 (02:30) 0 0 0 0 0
08-08-2019 32.5 (15:20) 16.4 (00:00) 24.4 6.11 (16:10) 2.78 (17:00) 0 0 0 0 0
07-08-2019 31 (16:10) 17.5 (00:00) 24.3 6.11 (14:50) 2.78 (12:10) 0 0 0 0 0
06-08-2019 33.2 (16:00) 16.8 (00:00) 25 6.39 (15:50) 2.78 (21:50) 0 0 0 0 0
05-08-2019 31.2 (16:10) 18.8 (00:00) 25 6.67 (18:30) 2.78 (20:50) 0 0 0 0 0
04-08-2019 30.7 (14:10) 17.9 (00:00) 24.3 6.11 (16:10) 2.78 (12:40) 0 0 0 0 0
03-08-2019 30.6 (16:00) 18.1 (00:00) 24.4 6.94 (16:00) 2.5 (16:20) 0 0 0 0 0
02-08-2019 31.8 (16:50) 17.3 (00:00) 24.5 6.39 (17:00) 2.78 (12:50) 0 0 0 0 0
01-08-2019 29.4 (16:10) 16.7 (00:00) 23.1 6.11 (14:50) 2.22 (18:00) 0 0 0 0 0
31-07-2019 28.7 (17:20) 17.9 (00:00) 23.3 7.22 (13:20) 3.61 (17:50) 0 0 0 0 0
30-07-2019 31.2 (17:10) 15.3 (00:00) 23.3 6.39 (00:40) 2.5 (14:50) 0 0 0 0 0
29-07-2019 28.8 (16:20) 15.1 (00:00) 21.9 7.22 (14:40) 3.61 (13:20) 0 0 0 0 0
28-07-2019 26.2 (16:50) 12.7 (00:00) 19.5 6.67 (16:00) 2.22 (14:20) 0.2 0.1 0 0.1 0
27-07-2019 22.2 (16:00) 15.1 (00:00) 18.7 7.5 (14:10) 2.78 (10:40) 0 0 0 0 0
26-07-2019 25 (16:20) 16.3 (00:00) 20.6 8.61 (14:20) 3.33 (14:10) 0 0 0 0 0
25-07-2019 31.1 (14:20) 18.2 (00:00) 24.7 6.67 (17:50) 2.78 (17:20) 0 0 0 0 0
24-07-2019 32.5 (16:40) 18.6 (00:00) 25.6 7.5 (09:30) 2.5 (12:40) 0 0 0 0 0
23-07-2019 31.8 (16:00) 22.5 (00:00) 27.1 10 (02:40) 4.44 (02:50) 0 0 0 0 0
22-07-2019 31.4 (17:20) 19.4 (00:00) 25.4 8.89 (22:50) 4.17 (16:40) 0 0 0 0 0
21-07-2019 32.4 (14:50) 19.9 (00:00) 26.2 6.39 (15:10) 2.22 (03:20) 0 0 0 0 0
20-07-2019 32.8 (15:00) 19.8 (00:00) 26.3 8.89 (03:30) 3.89 (03:30) 0 0 0 0 0
19-07-2019 32.1 (16:40) 17.3 (00:00) 24.7 8.06 (11:00) 3.33 (12:20) 0 0 0 0 0

Gráficas

Temp. máximas Temp. mínimas Temp. medias Precipitaciones Rachas de viento máximas Velocidades máximas media en intervalos de 10 minutos

Datos horarios

Fecha y hora oficial Temperatura (ºC) Velocidad del viento (km/h) Dirección del viento Racha (km/h) Dirección de racha Precipitación (mm) Presión (hPa) Tendencia (hPa) Humedad (%)
2019-08-17 23:00:00 22.5 8 Oeste 13 Noroeste 0 913.5 1 52
2019-08-17 22:00:00 25 9 Oeste 14 Noroeste 0 913.1 0.4 46
2019-08-17 21:00:00 26.9 5 Oeste 14 Sudoeste 0 912.6 -0.4 43
2019-08-17 20:00:00 29.3 4 Oeste 17 Noroeste 0 912.5 -0.8 39
2019-08-17 19:00:00 31.1 5 Oeste 17 Noroeste 0 912.7 -0.9 38
2019-08-17 18:00:00 32 6 Oeste 22 Oeste 0 913 -0.9 37
2019-08-17 17:00:00 33.2 6 Sudoeste 22 Noroeste 0 913.3 -1.1 34
2019-08-17 16:00:00 33.8 3 Oeste 19 Noroeste 0 913.6 -1 33
2019-08-17 15:00:00 34.2 0 Calma 18 Norte 0 913.9 -1.1 33
2019-08-17 14:00:00 33.4 5 Nordeste 19 Este 0 914.4 -0.5 33
2019-08-17 13:00:00 32.4 5 Nordeste 23 Este 0 914.6 -0.3 33
2019-08-17 12:00:00 31.7 6 Nordeste 22 Este 0 915 0.4 34
2019-08-17 11:00:00 29.8 4 Nordeste 13 Este 0 914.9 0.2 37
2019-08-17 10:00:00 26.7 4 Este 9 Este 0 914.9 0.5 42
2019-08-17 09:00:00 23.3 2 Noroeste 12 Noroeste 0 914.6 0.2 49
2019-08-17 08:00:00 19.3 7 Oeste 12 Oeste 0 914.7 0 51
2019-08-17 07:00:00 19.3 8 Oeste 12 Oeste 0 914.4 -0.4 51
2019-08-17 06:00:00 19.5 7 Oeste 13 Noroeste 0 914.4 -0.8 53
2019-08-17 05:00:00 19.7 5 Oeste 9 Oeste 0 914.7 -0.9 56
2019-08-17 04:00:00 20 6 Oeste 11 Oeste 0 914.8 -1 60
2019-08-17 03:00:00 20.6 6 Oeste 11 Noroeste 0 915.2 -0.6 60
2019-08-17 02:00:00 21.4 7 Oeste 12 Oeste 0 915.6 -0.3 58
2019-08-17 01:00:00 21.4 4 Oeste 9 Noroeste 0 915.8 0.2 58
2019-08-17 00:00:00 21.9 5 Oeste 10 Noroeste 0 915.8 0.6 56
2019-08-16 23:00:00 21.9 6 Oeste 12 Noroeste 0 915.9 1.1 53
2019-08-16 22:00:00 24.2 8 Oeste 14 Oeste 0 915.6 0.8 47
2019-08-16 21:00:00 26.5 7 Oeste 18 Oeste 0 915.2 0.3 43
2019-08-16 20:00:00 28.5 6 Oeste 21 Sudoeste 0 914.8 -0.4 41
2019-08-16 19:00:00 30.7 6 Oeste 18 Oeste 0 914.8 -0.8 38
2019-08-16 18:00:00 31.6 5 Oeste 19 Oeste 0 914.9 -0.9 37
2019-08-16 17:00:00 32.2 6 Oeste 24 Noroeste 0 915.2 -0.9 36
2019-08-16 16:00:00 32.2 6 Oeste 19 Noroeste 0 915.6 -0.7 36
2019-08-16 15:00:00 32 6 Oeste 21 Oeste 0 915.8 -0.8 37
2019-08-16 14:00:00 31 7 Noroeste 18 Nordeste 0 916.1 -0.2 36
2019-08-16 13:00:00 31.7 5 Este 19 Nordeste 0 916.3 0.1 37
2019-08-16 12:00:00 30.5 6 Este 17 Este 0 916.6 0.6 41
2019-08-16 11:00:00 28.5 3 Nordeste 13 Este 0 916.3 0.5 44
2019-08-16 10:00:00 26.9 2 Nordeste 8 Nordeste 0 916.2 0.8 46
2019-08-16 09:00:00 23.2 4 Oeste 9 Oeste 0 916 0.4 58
2019-08-16 08:00:00 19.6 6 Oeste 11 Oeste 0 915.8 0.1 61
2019-08-16 07:00:00 19.2 6 Oeste 10 Oeste 0 915.4 -0.5 63
2019-08-16 06:00:00 19.3 7 Oeste 13 Oeste 0 915.6 -0.3 61
2019-08-16 05:00:00 19.6 7 Oeste 11 Oeste 0 915.7 -0.6 60
2019-08-16 04:00:00 20.2 7 Oeste 12 Noroeste 0 915.9 -0.6 59
2019-08-16 03:00:00 20.4 7 Oeste 11 Oeste 0 915.9 -0.5 62
2019-08-16 02:00:00 20.3 6 Oeste 11 Oeste 0 916.3 -0.1 66
2019-08-16 01:00:00 21.1 6 Oeste 10 Oeste 0 916.5 0.6 64
2019-08-16 00:00:00 21.7 6 Oeste 10 Oeste 0 916.4 0.7 62
2019-08-15 23:00:00 22.2 7 Oeste 11 Noroeste 0 916.4 1 60
2019-08-15 22:00:00 24.2 8 Oeste 13 Sudoeste 0 915.9 0.7 53
2019-08-15 21:00:00 26.2 5 Oeste 22 Oeste 0 915.7 0.5 48
2019-08-15 20:00:00 28 8 Oeste 22 Sudoeste 0 915.4 0 45
2019-08-15 19:00:00 29.7 8 Oeste 18 Oeste 0 915.2 -0.6 41
2019-08-15 18:00:00 30.5 7 Oeste 18 Noroeste 0 915.2 -0.8 39
2019-08-15 17:00:00 31.7 5 Oeste 19 Noroeste 0 915.4 -0.9 37
2019-08-15 16:00:00 30.8 6 Noroeste 19 Noroeste 0 915.8 -0.9 37
2019-08-15 15:00:00 32.2 3 Noroeste 18 Este 0 916 -0.6 35
2019-08-15 14:00:00 31.7 8 Este 20 Este 0 916.3 -0.2 33
2019-08-15 13:00:00 30.9 7 Este 23 Este 0 916.7 0.4 34
2019-08-15 12:00:00 30.3 5 Este 15 Este 0 916.6 0.3 37
2019-08-15 11:00:00 28.3 3 Nordeste 13 Este 0 916.5 0.5 38
2019-08-15 10:00:00 26.1 3 Nordeste 10 Nordeste 0 916.3 0.6 43
2019-08-15 09:00:00 22.3 4 Oeste 11 Oeste 0 916.3 0.6 59
2019-08-15 08:00:00 18.6 9 Oeste 12 Oeste 0 916 0.2 69
2019-08-15 07:00:00 18.4 8 Oeste 12 Oeste 0 915.7 -0.4 71
2019-08-15 06:00:00 18.5 6 Oeste 9 Oeste 0 915.7 -0.5 73
2019-08-15 05:00:00 18.6 5 Oeste 10 Noroeste 0 915.8 -0.7 74
2019-08-15 04:00:00 18.9 5 Oeste 10 Oeste 0 916.1 -0.6 77
2019-08-15 03:00:00 19 6 Oeste 10 Oeste 0 916.2 -0.5 76
2019-08-15 02:00:00 19.6 5 Oeste 10 Oeste 0 916.5 0 74
2019-08-15 01:00:00 19.8 6 Oeste 9 Noroeste 0 916.7 0.6 74
2019-08-15 00:00:00 20.1 6 Oeste 10 Oeste 0 916.7 1 73
2019-08-14 23:00:00 20.7 7 Oeste 11 Noroeste 0 916.5 1.1 73
2019-08-14 22:00:00 23.7 4 Oeste 17 Oeste 0 916.1 0.6 70
2019-08-14 21:00:00 25.3 5 Oeste 17 Oeste 0 915.7 0 63
2019-08-14 20:00:00 26.7 6 Oeste 17 Oeste 0 915.4 -0.5 56
2019-08-14 19:00:00 28.7 4 Oeste 17 Sudoeste 0 915.5 -0.6 49
2019-08-14 18:00:00 29.4 7 Oeste 19 Noroeste 0 915.7 -0.9 49
2019-08-14 17:00:00 30 0 Calma 17 Este 0 915.9 -1.1 44
2019-08-14 16:00:00 29.6 5 Noroeste 18 Noroeste 0 916.1 -1.1 46
2019-08-14 15:00:00 29.9 5 Noroeste 19 Oeste 0 916.6 -0.6 48
2019-08-14 14:00:00 29.2 6 Este 17 Este 0 917 0 41
2019-08-14 13:00:00 27.9 0 Calma 21 Este 0 917.2 0.3 46
2019-08-14 12:00:00 26.5 6 Nordeste 20 Este 0 917.2 0.7 55
2019-08-14 11:00:00 25.1 10 Este 20 Este 0 917 0.6 56
2019-08-14 10:00:00 23.3 3 Nordeste 13 Sudeste 0 916.9 0.8 68
2019-08-14 09:00:00 21.5 3 Sudeste 15 Sudeste 0 916.5 0.5 77
2019-08-14 08:00:00 17.1 4 Oeste 10 Noroeste 0 916.4 0.4 86
2019-08-14 07:00:00 16.6 7 Oeste 10 Oeste 0 916.1 -0.2 86
2019-08-14 06:00:00 17.2 7 Oeste 10 Oeste 0 916 -0.3 86
2019-08-14 05:00:00 17.6 5 Oeste 10 Noroeste 0 916 -0.6 86
2019-08-14 04:00:00 19 3 Oeste 12 Sudoeste 0 916.3 -0.2 81
2019-08-14 03:00:00 18.6 4 Oeste 13 Noroeste 0 916.3 -0.1 88
2019-08-14 02:00:00 18.2 6 Oeste 10 Oeste 0 916.6 0.5 83
2019-08-14 01:00:00 18.8 6 Oeste 10 Oeste 0 916.5 0.9 80
2019-08-14 00:00:00 18.8 6 Oeste 11 Noroeste 0 916.4 1.3 79
2019-08-13 23:00:00 20 6 Oeste 11 Noroeste 0 916.1 1.2 80
2019-08-13 22:00:00 21.8 5 Oeste 13 Oeste 0 915.6 1 79
2019-08-13 21:00:00 23.3 5 Oeste 17 Oeste 0 915.1 0.6 72
2019-08-13 20:00:00 24.7 5 Sudoeste 19 Sur 0 914.9 0.1 65
2019-08-13 19:00:00 25.6 6 Oeste 21 Sudoeste 0 914.6 -0.6 57
2019-08-13 18:00:00 27.6 6 Oeste 20 Oeste 0 914.5 -1.1 44
2019-08-13 17:00:00 29 5 Noroeste 16 Noroeste 0 914.8 -1 37
2019-08-13 16:00:00 29.8 0 Calma 16 Norte 0 915.2 -0.5 38
2019-08-13 15:00:00 28.3 3 Noroeste 20 Oeste 0 915.6 0.1 40
2019-08-13 14:00:00 28.4 4 Oeste 16 Oeste 0 915.8 0.7 39
2019-08-13 13:00:00 26.9 6 Oeste 17 Noroeste 0 915.7 0.8 39
2019-08-13 12:00:00 26.7 3 Este 16 Este 0 915.5 1.1 37
2019-08-13 11:00:00 25.4 7 Este 18 Este 0 915.1 1.1 37
2019-08-13 10:00:00 22.9 3 Nordeste 8 Nordeste 0 914.9 1.3 37
2019-08-13 09:00:00 20.4 6 Oeste 11 Oeste 0 914.4 0.9 40
2019-08-13 08:00:00 16.2 7 Oeste 11 Oeste 0 914 0.2 40
2019-08-13 07:00:00 15.7 8 Oeste 11 Oeste 0 913.6 -0.4 40
2019-08-13 06:00:00 15.9 8 Oeste 10 Oeste 0 913.5 -0.8 40
2019-08-13 05:00:00 15.8 5 Oeste 11 Oeste 0 913.8 -0.7 40
2019-08-13 04:00:00 16 7 Oeste 12 Oeste 0 914 -0.9 39
2019-08-13 03:00:00 17.7 6 Oeste 10 Oeste 0 914.3 -0.6 39
2019-08-13 02:00:00 17.7 6 Oeste 10 Oeste 0 914.5 -0.2 38
2019-08-13 01:00:00 17.8 7 Oeste 12 Oeste 0 914.9 0.7 37
2019-08-13 00:00:00 18.2 8 Oeste 12 Oeste 0 914.9 1.4 36
2019-08-12 23:00:00 19 6 Oeste 10 Oeste 0 914.7 1.7 35
2019-08-12 22:00:00 19.5 5 Oeste 13 Noroeste 0 914.2 1.3 31
2019-08-12 21:00:00 23 3 Oeste 16 Noroeste 0 913.5 0.5 28
2019-08-12 20:00:00 25 2 Noroeste 13 Nordeste 0 913 -0.3 28
2019-08-12 19:00:00 26.1 5 Este 18 Sudeste 0 912.9 -1 27
2019-08-12 18:00:00 26.8 5 Este 17 Este 0 913 -1.2 27
2019-08-12 17:00:00 26.5 5 Este 21 Nordeste 0 913.3 -1.1 27
2019-08-12 16:00:00 26.2 6 Este 26 Este 0 913.9 -0.6 29
2019-08-12 15:00:00 25.6 9 Este 27 Este 0 914.2 -0.1 32
2019-08-12 14:00:00 24.7 11 Este 26 Este 0 914.4 0 36
2019-08-12 13:00:00 23.9 9 Este 21 Este 0 914.5 0.5 38
2019-08-12 12:00:00 23 10 Este 19 Este 0 914.3 0.6 41
2019-08-12 11:00:00 21.5 7 Este 15 Este 0 914.4 1.1 43
2019-08-12 10:00:00 19.3 3 Nordeste 12 Este 0 914 0.7 48
2019-08-12 09:00:00 17.3 3 Este 6 Nordeste 0 913.7 0.4 52
2019-08-12 08:00:00 14.6 5 Oeste 11 Oeste 0 913.3 -0.3 55
2019-08-12 07:00:00 13.3 5 Oeste 10 Oeste 0 913.3 -0.8 54
2019-08-12 06:00:00 13.8 8 Oeste 11 Oeste 0 913.3 -1.4 52
2019-08-12 05:00:00 13.7 7 Oeste 12 Oeste 0 913.6 -1.6 52
2019-08-12 04:00:00 15 7 Oeste 10 Oeste 0 914.1 -1.2 49
2019-08-12 03:00:00 15.2 6 Oeste 10 Oeste 0 914.7 -0.4 49
2019-08-12 02:00:00 17 5 Oeste 8 Noroeste 0 915.2 0 49
2019-08-12 01:00:00 18.6 0 Calma 10 Noroeste 0 915.3 0.5 48
2019-08-12 00:00:00 18.9 6 Oeste 14 Sudoeste 0 915.1 0.6 45
2019-08-11 23:00:00 20.4 4 Sudoeste 15 Oeste 0 915.2 1.2 45
2019-08-11 22:00:00 21.2 6 Oeste 15 Sudoeste 0 914.8 0.6 43
2019-08-11 21:00:00 21.3 6 Oeste 15 Noroeste 0 914.5 0.1 42
2019-08-11 20:00:00 23.1 9 Noroeste 22 Noroeste 0 914 -0.8 35
2019-08-11 19:00:00 24.7 6 Noroeste 23 Noroeste 0 914.2 -1.1 34
2019-08-11 18:00:00 25.5 6 Noroeste 21 Noroeste 0 914.4 -1.1 34
2019-08-11 17:00:00 25.4 5 Noroeste 23 Noroeste 0 914.8 -1.1 34
2019-08-11 16:00:00 26.7 8 Oeste 22 Noroeste 0 915.3 -0.7 30
2019-08-11 15:00:00 26.4 7 Noroeste 24 Noroeste 0 915.5 -0.2 30
2019-08-11 14:00:00 26.3 2 Oeste 23 Noroeste 0 915.9 0.6 34
2019-08-11 13:00:00 25.6 2 Noroeste 15 Nordeste 0 916 1.2 43
2019-08-11 12:00:00 25 6 Este 13 Nordeste 0 915.7 1.1 39
2019-08-11 11:00:00 23.5 6 Este 17 Este 0 915.3 0.6 45
2019-08-11 10:00:00 21.9 3 Este 15 Noroeste 0 914.8 0.5 49
2019-08-11 09:00:00 21.1 4 Noroeste 17 Noroeste 0 914.6 -0.1 45
2019-08-11 08:00:00 17.7 0 Calma 14 Noroeste 0 914.7 0.2 58
2019-08-11 07:00:00 18 0 Calma 12 Noroeste 0 914.3 -0.1 55
2019-08-11 06:00:00 17.6 0 Calma 8 Noroeste 0 914.7 -0.3 58
2019-08-11 05:00:00 17.9 2 Este 9 Oeste 0 914.5 -0.6 56
2019-08-11 04:00:00 17.9 5 Oeste 11 Noroeste 0 914.4 -1 52
2019-08-11 03:00:00 19.6 3 Sudoeste 17 Oeste 0 915 -0.5 54
2019-08-11 02:00:00 21.1 8 Oeste 19 Oeste 0 915.1 -0.5 50
2019-08-11 01:00:00 20.9 8 Oeste 16 Sudoeste 0 915.4 0.3 63
2019-08-11 00:00:00 20.6 6 Oeste 12 Noroeste 0 915.5 0.8 62
2019-08-10 23:00:00 21.3 0 Calma 13 Noroeste 0 915.6 1.1 63
2019-08-10 22:00:00 21.8 10 Oeste 19 Oeste 0 915.1 0.4 61
2019-08-10 21:00:00 23.9 9 Oeste 18 Sudoeste 0 914.7 -0.4 56
2019-08-10 20:00:00 26.3 8 Oeste 23 Sudoeste 0 914.5 -1 52
2019-08-10 19:00:00 28.4 6 Oeste 21 Sudoeste 0 914.7 -1.6 47
2019-08-10 18:00:00 29.2 8 Oeste 20 Oeste 0 915.1 -1.6 43
2019-08-10 17:00:00 29.9 6 Oeste 17 Noroeste 0 915.5 -1.3 43
2019-08-10 16:00:00 30 7 Oeste 19 Noroeste 0 916.3 -0.7 45
2019-08-10 15:00:00 29.6 3 Oeste 20 Este 0 916.7 -0.5 47
2019-08-10 14:00:00 28.5 6 Este 20 Nordeste 0 916.8 -0.1 53
2019-08-10 13:00:00 27.8 5 Este 20 Este 0 917 0.3 55
2019-08-10 12:00:00 26.1 5 Este 18 Este 0 917.2 0.8 62
2019-08-10 11:00:00 24.6 4 Este 15 Nordeste 0 916.9 0.9 70
2019-08-10 10:00:00 22.1 4 Este 9 Este 0 916.7 0.9 81
2019-08-10 09:00:00 20.4 2 Este 6 Este 0 916.4 0.1 85
2019-08-10 08:00:00 18.9 0 Calma 10 Noroeste 0 916 -0.1 85
2019-08-10 07:00:00 18.6 0 Calma 11 Oeste 0 915.8 -0.8 87
2019-08-10 06:00:00 17.8 6 Oeste 10 Noroeste 0 916.3 -0.4 86
2019-08-10 05:00:00 19.5 5 Noroeste 13 Oeste 0 916.1 -0.8 86
2019-08-10 04:00:00 19.1 5 Oeste 12 Oeste 0 916.6 -0.1 86
2019-08-10 03:00:00 20.3 5 Oeste 16 Oeste 0 916.7 0 84
2019-08-10 02:00:00 20.9 8 Oeste 15 Noroeste 0 916.9 0.4 77
2019-08-10 01:00:00 21.1 5 Oeste 13 Oeste 0 916.7 0.9 62
2019-08-10 00:00:00 20.3 5 Oeste 10 Oeste 0 916.7 1.2 60
2019-08-09 23:00:00 19.7 7 Oeste 12 Oeste 0 916.5 1.5 63
2019-08-09 22:00:00 20.9 6 Oeste 10 Oeste 0 915.8 0.8 67
2019-08-09 21:00:00 23.2 5 Noroeste 15 Noroeste 0 915.5 0.1 63
2019-08-09 20:00:00 24.7 7 Oeste 21 Sudoeste 0 915 -0.6 55
2019-08-09 19:00:00 26.6 6 Oeste 21 Sudoeste 0 915 -1 49
2019-08-09 18:00:00 27.4 8 Oeste 21 Sudoeste 0 915.4 -0.8 48
2019-08-09 17:00:00 28.3 7 Oeste 24 Sur 0 915.6 -0.8 47
2019-08-09 16:00:00 29.3 7 Oeste 21 Oeste 0 916 -0.5 45
2019-08-09 15:00:00 29.2 5 Oeste 22 Sudoeste 0 916.2 0 46
2019-08-09 14:00:00 28.7 6 Oeste 16 Sudoeste 0 916.4 0.7 50
2019-08-09 13:00:00 27.2 8 Nordeste 18 Nordeste 0 916.5 1 51
2019-08-09 12:00:00 26.6 3 Este 16 Este 0 916.2 0.9 52
2019-08-09 11:00:00 24.8 4 Este 13 Este 0 915.7 0.8 51
2019-08-09 10:00:00 23.2 4 Este 14 Noroeste 0 915.5 0.7 51
2019-08-09 09:00:00 21 0 Calma 9 Oeste 0 915.3 0.6 49
2019-08-09 08:00:00 17.6 6 Oeste 10 Sudoeste 0 914.9 0.1 49
2019-08-09 07:00:00 18.6 6 Oeste 12 Oeste 0 914.8 -0.1 53
2019-08-09 06:00:00 18.7 6 Oeste 13 Oeste 0 914.7 -0.1 50
2019-08-09 05:00:00 19.5 8 Oeste 14 Noroeste 0 914.8 0 45
2019-08-09 04:00:00 20.5 8 Oeste 15 Oeste 0 914.9 0.2 42
2019-08-09 03:00:00 21 9 Oeste 16 Noroeste 0 914.8 0.3 43
2019-08-09 02:00:00 20.7 8 Oeste 15 Noroeste 0 914.8 0.6 48
2019-08-09 01:00:00 20.6 9 Oeste 14 Oeste 0 914.7 1.2 49
2019-08-09 00:00:00 20.9 7 Oeste 12 Oeste 0 914.5 1.2 42
2019-08-08 23:00:00 21.4 9 Oeste 14 Noroeste 0 914.2 0.8 40
2019-08-08 22:00:00 22.7 8 Oeste 12 Oeste 0 913.5 0 46
2019-08-08 21:00:00 25.7 6 Oeste 13 Oeste 0 913.3 -0.3 45
2019-08-08 20:00:00 27.6 5 Oeste 18 Oeste 0 913.4 -0.3 42
2019-08-08 19:00:00 30 5 Oeste 17 Sudoeste 0 913.5 -0.4 34
2019-08-08 18:00:00 30.8 6 Oeste 22 Oeste 0 913.6 -0.4 33
2019-08-08 17:00:00 30.8 10 Noroeste 22 Oeste 0 913.7 -0.3 29
2019-08-08 16:00:00 31.8 8 Oeste 21 Noroeste 0 913.9 -0.3 30
2019-08-08 15:00:00 32.2 6 Oeste 21 Norte 0 914 -0.1 31
2019-08-08 14:00:00 31.1 5 Noroeste 17 Noroeste 0 914 0.2 37
2019-08-08 13:00:00 30.2 3 Este 14 Este 0 914.2 0.6 40
2019-08-08 12:00:00 27.7 8 Este 18 Este 0 914.1 0.6 45
2019-08-08 11:00:00 26.4 4 Este 12 Este 0 913.8 0.6 50
2019-08-08 10:00:00 23.8 3 Nordeste 8 Este 0 913.6 0.5 55
2019-08-08 09:00:00 20.2 4 Oeste 13 Oeste 0 913.5 0.4 61
2019-08-08 08:00:00 16.9 7 Oeste 12 Noroeste 0 913.2 0.1 62
2019-08-08 07:00:00 16.7 6 Oeste 13 Oeste 0 913.1 -0.2 64
2019-08-08 06:00:00 17.1 6 Oeste 11 Oeste 0 913.1 -0.4 65
2019-08-08 05:00:00 18.2 5 Oeste 13 Noroeste 0 913.1 -1 63
2019-08-08 04:00:00 19.2 6 Oeste 13 Oeste 0 913.3 -0.8 60
2019-08-08 03:00:00 18.8 5 Oeste 10 Oeste 0 913.5 -0.6 60
2019-08-08 02:00:00 20 6 Oeste 14 Sudoeste 0 914.1 0.2 60
2019-08-08 01:00:00 19.5 8 Oeste 13 Noroeste 0 914.1 1 60
2019-08-08 00:00:00 20.1 6 Oeste 14 Noroeste 0 914.1 1.4 62
2019-08-07 23:00:00 21.2 6 Oeste 12 Noroeste 0 913.9 1.5 57
2019-08-07 22:00:00 23 8 Oeste 13 Noroeste 0 913.1 0.5 52
2019-08-07 21:00:00 25 3 Oeste 13 Noroeste 0 912.7 -0.1 48
2019-08-07 20:00:00 26.8 0 Calma 12 Noroeste 0 912.4 -0.5 48
2019-08-07 19:00:00 26.8 5 Oeste 17 Sudoeste 0 912.6 -0.3 47
2019-08-07 18:00:00 28 6 Oeste 18 Oeste 0 912.8 -0.3 39
2019-08-07 17:00:00 29.2 8 Oeste 15 Oeste 0 912.9 -0.5 38
2019-08-07 16:00:00 30.8 2 Noroeste 18 Este 0 912.9 -0.5 40
2019-08-07 15:00:00 29.3 10 Este 22 Este 0 913.1 -0.3 40
2019-08-07 14:00:00 28.9 10 Este 21 Este 0 913.4 0.5 39
2019-08-07 13:00:00 28.5 8 Este 18 Este 0 913.4 0.8 39
2019-08-07 12:00:00 27 10 Este 17 Este 0 913.4 1.2 42
2019-08-07 11:00:00 26.2 6 Este 14 Este 0 912.9 1.2 42
2019-08-07 10:00:00 23.8 3 Este 8 Este 0 912.6 1 41
2019-08-07 09:00:00 20.5 2 Oeste 11 Oeste 0 912.2 0.9 39
2019-08-07 08:00:00 18.2 8 Oeste 12 Oeste 0 911.7 0.2 38
2019-08-07 07:00:00 18.2 7 Oeste 11 Oeste 0 911.6 -0.1 36
2019-08-07 06:00:00 19.2 6 Oeste 14 Noroeste 0 911.3 -0.6 35
2019-08-07 05:00:00 19.6 7 Oeste 11 Noroeste 0 911.5 -0.8 36
2019-08-07 04:00:00 21.6 8 Noroeste 16 Noroeste 0 911.7 -0.8 33
2019-08-07 03:00:00 21.2 7 Oeste 13 Sudoeste 0 911.9 -0.8 31
2019-08-07 02:00:00 21.6 8 Oeste 15 Oeste 0 912.3 -0.3 33
2019-08-07 01:00:00 22.4 10 Oeste 16 Oeste 0 912.5 0.4 35
2019-08-07 00:00:00 22.6 9 Noroeste 17 Oeste 0 912.7 1.1 40
2019-08-06 23:00:00 22.2 8 Oeste 16 Noroeste 0 912.6 1.4 44
2019-08-06 22:00:00 23.4 10 Oeste 18 Sudoeste 0 912.1 0.8 43
2019-08-06 21:00:00 25.2 8 Oeste 21 Sudoeste 0 911.6 -0.2 42
2019-08-06 20:00:00 27 9 Oeste 19 Oeste 0 911.2 -0.8 39
2019-08-06 19:00:00 30.1 5 Oeste 19 Oeste 0 911.3 -1.2 28
2019-08-06 18:00:00 31.5 6 Oeste 22 Noroeste 0 911.8 -1 28
2019-08-06 17:00:00 32.8 5 Oeste 22 Sudoeste 0 912 -1.1 28
2019-08-06 16:00:00 32.5 6 Oeste 23 Sudoeste 0 912.5 -1 30
2019-08-06 15:00:00 31.8 8 Noroeste 17 Noroeste 0 912.8 -1 31
2019-08-06 14:00:00 31.1 5 Nordeste 18 Este 0 913.1 -0.3 31
2019-08-06 13:00:00 29.3 5 Este 16 Este 0 913.5 0.3 32
2019-08-06 12:00:00 28.1 7 Este 15 Este 0 913.8 0.9 33
2019-08-06 11:00:00 27.9 5 Este 15 Oeste 0 913.4 0.6 33
2019-08-06 10:00:00 26.9 5 Oeste 11 Noroeste 0 913.2 0.2 31
2019-08-06 09:00:00 21.6 5 Oeste 12 Oeste 0 912.9 -0.1 51
2019-08-06 08:00:00 17.8 7 Oeste 12 Oeste 0 912.8 -0.3 53
2019-08-06 07:00:00 17 8 Oeste 11 Oeste 0 913 -0.4 55
2019-08-06 06:00:00 17.8 5 Oeste 11 Oeste 0 913 -0.5 55
2019-08-06 05:00:00 17.8 7 Oeste 12 Noroeste 0 913.1 -0.7 53
2019-08-06 04:00:00 19.3 8 Oeste 13 Oeste 0 913.4 -0.5 51
2019-08-06 03:00:00 19.8 6 Oeste 14 Noroeste 0 913.5 -0.5 50
2019-08-06 02:00:00 20 8 Oeste 12 Oeste 0 913.8 0.1 56
2019-08-06 01:00:00 20.6 7 Oeste 12 Oeste 0 913.9 0.8 53
2019-08-06 00:00:00 21 8 Oeste 12 Oeste 0 914 1.4 53
2019-08-05 23:00:00 21.2 8 Oeste 10 Noroeste 0 913.7 1.4 52
2019-08-05 22:00:00 22.1 6 Oeste 15 Oeste 0 913.1 0.6 49
2019-08-05 21:00:00 24.5 8 Oeste 18 Oeste 0 912.6 0.1 44
2019-08-05 20:00:00 26.9 8 Oeste 21 Sudoeste 0 912.3 -0.5 41
2019-08-05 19:00:00 29.1 7 Oeste 24 Sudoeste 0 912.5 -0.4 40
2019-08-05 18:00:00 30.2 6 Oeste 20 Sudoeste 0 912.5 -0.6 40
2019-08-05 17:00:00 30.4 7 Oeste 20 Oeste 0 912.8 -0.5 40
2019-08-05 16:00:00 30.6 6 Oeste 21 Noroeste 0 912.9 -0.8 40
2019-08-05 15:00:00 30.5 8 Oeste 23 Oeste 0 913.1 -0.6 41
2019-08-05 14:00:00 29.8 6 Oeste 19 Sudoeste 0 913.3 -0.4 41
2019-08-05 13:00:00 30.4 3 Nordeste 14 Este 0 913.7 -0.1 36
2019-08-05 12:00:00 28.7 8 Este 13 Este 0 913.7 0.1 39
2019-08-05 11:00:00 28.1 4 Nordeste 12 Este 0 913.7 0.3 42
2019-08-05 10:00:00 26.2 3 Este 8 Nordeste 0 913.8 0.6 43
2019-08-05 09:00:00 23.3 5 Oeste 12 Oeste 0 913.6 0.4 47
2019-08-05 08:00:00 19.5 6 Oeste 10 Oeste 0 913.4 -0.1 52
2019-08-05 07:00:00 19.3 7 Oeste 10 Noroeste 0 913.2 -0.5 54
2019-08-05 06:00:00 19.1 6 Oeste 11 Oeste 0 913.2 -0.7 56
2019-08-05 05:00:00 19.3 6 Oeste 12 Oeste 0 913.5 -0.7 52
2019-08-05 04:00:00 19.3 8 Oeste 11 Oeste 0 913.7 -0.7 52
2019-08-05 03:00:00 19.4 6 Oeste 12 Noroeste 0 913.9 -0.5 53
2019-08-05 02:00:00 20.1 7 Oeste 12 Noroeste 0 914.2 -0.1 56
2019-08-05 01:00:00 20.4 6 Oeste 10 Oeste 0 914.4 0.6 62
2019-08-05 00:00:00 20.8 6 Oeste 10 Noroeste 0 914.4 0.9 63
2019-08-04 23:00:00 20.7 6 Oeste 11 Noroeste 0 914.3 1.2 62
2019-08-04 22:00:00 22.7 8 Noroeste 14 Noroeste 0 913.8 0.6 55
2019-08-04 21:00:00 25.2 5 Oeste 15 Sur 0 913.5 0.4 48
2019-08-04 20:00:00 27 5 Oeste 19 Sudoeste 0 913.1 -0.1 46
2019-08-04 19:00:00 28.4 7 Oeste 20 Sudoeste 0 913.2 -0.3 46
2019-08-04 18:00:00 29.3 6 Oeste 18 Sudoeste 0 913.1 -0.5 42
2019-08-04 17:00:00 29.6 8 Oeste 22 Sudoeste 0 913.2 -0.5 42
2019-08-04 16:00:00 29.7 5 Oeste 19 Oeste 0 913.5 -0.5 42
2019-08-04 15:00:00 30.1 6 Oeste 18 Noroeste 0 913.6 -0.5 43
2019-08-04 14:00:00 29.7 6 Este 19 Este 0 913.7 -0.3 43
2019-08-04 13:00:00 28.8 8 Este 18 Este 0 914 0.1 44
2019-08-04 12:00:00 27.8 6 Este 15 Este 0 914.1 0.4 45
2019-08-04 11:00:00 26.2 5 Este 11 Este 0 914 0.6 48
2019-08-04 10:00:00 23.1 3 Nordeste 7 Este 0 913.9 0.5 59
2019-08-04 09:00:00 21.4 3 Noroeste 10 Oeste 0 913.7 0.5 69
2019-08-04 08:00:00 18.6 6 Oeste 11 Oeste 0 913.4 0 74
2019-08-04 07:00:00 18.4 6 Oeste 10 Oeste 0 913.4 -0.1 73
2019-08-04 06:00:00 18.9 4 Oeste 9 Oeste 0 913.2 -0.5 69
2019-08-04 05:00:00 19.6 4 Oeste 12 Oeste 0 913.4 -0.3 66
2019-08-04 04:00:00 20.3 8 Noroeste 12 Oeste 0 913.5 -0.4 63
2019-08-04 03:00:00 19.8 6 Oeste 10 Noroeste 0 913.7 0 58
2019-08-04 02:00:00 19.9 5 Oeste 10 Oeste 0 913.7 -0.1 61
2019-08-04 01:00:00 20.3 5 Oeste 9 Oeste 0 913.9 0.9 59
2019-08-04 00:00:00 21.3 6 Oeste 12 Oeste 0 913.7 1.1 55
2019-08-03 23:00:00 20.9 8 Oeste 11 Oeste 0 913.8 1.4 57
2019-08-03 22:00:00 22.2 7 Oeste 15 Oeste 0 913 0.6 53
2019-08-03 21:00:00 23.9 8 Oeste 20 Sudoeste 0 912.6 -0.1 52
2019-08-03 20:00:00 25.7 8 Oeste 21 Sudoeste 0 912.4 -0.7 51
2019-08-03 19:00:00 27.3 6 Oeste 21 Noroeste 0 912.4 -0.9 50
2019-08-03 18:00:00 28.1 8 Oeste 20 Oeste 0 912.7 -0.8 49
2019-08-03 17:00:00 29.2 8 Oeste 23 Sudoeste 0 913.1 -0.5 46
2019-08-03 16:00:00 28.9 9 Oeste 25 Noroeste 0 913.3 -0.5 44
2019-08-03 15:00:00 29.7 6 Oeste 19 Noroeste 0 913.5 -0.2 44
2019-08-03 14:00:00 29.8 6 Sudoeste 17 Noroeste 0 913.6 0 44
2019-08-03 13:00:00 28.1 6 Oeste 19 Oeste 0 913.8 0.4 47
2019-08-03 12:00:00 27.4 5 Oeste 15 Este 0 913.7 0.6 47
2019-08-03 11:00:00 27.1 3 Norte 13 Nordeste 0 913.6 0.6 51
2019-08-03 10:00:00 24.4 2 Nordeste 7 Este 0 913.4 0.8 55
2019-08-03 09:00:00 22.8 3 Noroeste 10 Oeste 0 913.1 0.6 60
2019-08-03 08:00:00 18.9 6 Oeste 10 Noroeste 0 913 0.4 68
2019-08-03 07:00:00 18.5 6 Oeste 11 Oeste 0 912.6 -0.2 66
2019-08-03 06:00:00 18.6 4 Oeste 12 Oeste 0 912.5 -0.6 60
2019-08-03 05:00:00 19.7 7 Oeste 12 Oeste 0 912.6 -0.9 56
2019-08-03 04:00:00 20.3 6 Oeste 11 Oeste 0 912.8 -0.9 58
2019-08-03 03:00:00 20 7 Oeste 11 Noroeste 0 913.1 -0.5 55
2019-08-03 02:00:00 19.7 6 Oeste 13 Oeste 0 913.5 0 56
2019-08-03 01:00:00 19.1 7 Oeste 10 Noroeste 0 913.7 0.5 56
2019-08-03 00:00:00 19.8 7 Oeste 10 Noroeste 0 913.6 0.7 55
2019-08-02 23:00:00 19.7 8 Oeste 11 Oeste 0 913.5 0.7 51
2019-08-02 22:00:00 21.4 7 Noroeste 13 Noroeste 0 913.2 0.1 42
2019-08-02 21:00:00 24.2 7 Oeste 15 Oeste 0 912.9 -0.3 39
2019-08-02 20:00:00 26 8 Oeste 21 Sudoeste 0 912.8 -0.6 38
2019-08-02 19:00:00 28.1 7 Oeste 20 Sudoeste 0 913.1 -0.4 38
2019-08-02 18:00:00 29.3 8 Sudoeste 23 Oeste 0 913.2 -0.5 37
2019-08-02 17:00:00 30.8 8 Oeste 23 Noroeste 0 913.4 -0.5 31
2019-08-02 16:00:00 31.1 6 Oeste 21 Nordeste 0 913.5 -0.5 31
2019-08-02 15:00:00 31.1 6 Este 21 Este 0 913.7 -0.1 30
2019-08-02 14:00:00 30.1 6 Este 21 Este 0 913.9 0.2 32
2019-08-02 13:00:00 29 8 Este 22 Este 0 914 0.7 34
2019-08-02 12:00:00 28 7 Este 18 Este 0 913.8 0.7 38
2019-08-02 11:00:00 26.9 5 Este 12 Este 0 913.7 0.9 41
2019-08-02 10:00:00 24 2 Este 7 Este 0 913.3 0.5 46
2019-08-02 09:00:00 22.2 4 Oeste 12 Noroeste 0 913.1 0.3 50
2019-08-02 08:00:00 18 6 Oeste 10 Oeste 0 912.8 -0.1 54
2019-08-02 07:00:00 17.9 7 Oeste 10 Noroeste 0 912.8 -0.2 53
2019-08-02 06:00:00 17.8 7 Oeste 10 Oeste 0 912.8 -0.4 53
2019-08-02 05:00:00 19.1 7 Oeste 10 Oeste 0 912.9 -0.5 50
2019-08-02 04:00:00 21.3 4 Sudoeste 12 Oeste 0 913 -0.7 49
2019-08-02 03:00:00 19.6 7 Oeste 13 Noroeste 0 913.2 -0.3 52
2019-08-02 02:00:00 21 5 Oeste 11 Sudoeste 0 913.4 0.2 52
2019-08-02 01:00:00 22.9 3 Sudoeste 13 Sudoeste 0 913.7 1 53
2019-08-02 00:00:00 21 4 Oeste 12 Oeste 0 913.5 1.2 62
2019-08-01 23:00:00 21.3 6 Oeste 12 Noroeste 0 913.2 1.4 61
2019-08-01 22:00:00 22.6 6 Oeste 15 Sudoeste 0 912.7 1.4 58
2019-08-01 21:00:00 24.8 6 Oeste 21 Sudoeste 0 912.3 0.7 56
2019-08-01 20:00:00 26.4 6 Oeste 22 Sudoeste 0 911.8 0.2 52
2019-08-01 19:00:00 27.5 6 Oeste 17 Oeste 0 911.3 -0.8 51
2019-08-01 18:00:00 27.8 8 Oeste 18 Oeste 0 911.6 -0.5 51
2019-08-01 17:00:00 28.6 7 Oeste 18 Oeste 0 911.6 -0.8 50
2019-08-01 16:00:00 29.2 5 Oeste 18 Oeste 0 912.1 -0.4 51
2019-08-01 15:00:00 28.1 6 Oeste 22 Noroeste 0 912.1 -0.4 53
2019-08-01 14:00:00 27.6 3 Nordeste 15 Este 0 912.4 0.3 51
2019-08-01 13:00:00 27.1 6 Este 18 Este 0 912.5 0.6 52
2019-08-01 12:00:00 25.8 6 Nordeste 14 Este 0 912.5 0.8 55
2019-08-01 11:00:00 24.8 5 Este 13 Este 0 912.1 0.9 58
2019-08-01 10:00:00 22.4 2 Nordeste 8 Este 0 911.9 0.8 69
2019-08-01 09:00:00 20.4 2 Nordeste 7 Este 0 911.7 0.7 80
2019-08-01 08:00:00 17.6 4 Oeste 10 Sur 0 911.2 0 85
2019-08-01 07:00:00 17.6 2 Oeste 10 Oeste 0 911.1 -0.3 84
2019-08-01 06:00:00 17.1 5 Oeste 9 Oeste 0 911 -0.5 80
2019-08-01 05:00:00 17.3 6 Oeste 11 Oeste 0 911.2 -0.8 80
2019-08-01 04:00:00 17.6 6 Oeste 12 Oeste 0 911.4 -0.4 78
2019-08-01 03:00:00 18.1 6 Oeste 10 Oeste 0 911.5 -0.2 73
2019-08-01 02:00:00 20.1 4 Oeste 13 Sudoeste 0 912 0.5 67
2019-08-01 01:00:00 20.1 2 Sudoeste 9 Sur 0 911.8 0.8 69
2019-08-01 00:00:00 19.8 4 Oeste 8 Oeste 0 911.7 1.4 73
2019-07-31 23:00:00 21.4 4 Oeste 8 Noroeste 0 911.5 1.5 68
2019-07-31 22:00:00 23.3 0 Calma 8 Este 0 911 0.9 61
2019-07-31 21:00:00 25.3 0 Calma 14 Este 0 910.3 -0.1 52
2019-07-31 20:00:00 26.6 2 Nordeste 16 Este 0 910 -0.6 49
2019-07-31 19:00:00 27.3 6 Este 22 Este 0 910.1 -1 48
2019-07-31 18:00:00 27.9 10 Este 23 Este 0 910.4 -0.9 48
2019-07-31 17:00:00 28.4 8 Este 21 Este 0 910.6 -1.2 48
2019-07-31 16:00:00 28.1 10 Este 24 Este 0 911.1 -0.9 48
2019-07-31 15:00:00 27.8 9 Este 23 Este 0 911.3 -0.8 48
2019-07-31 14:00:00 26.8 8 Este 26 Este 0 911.8 -- 47
2019-07-31 13:00:00 26.7 10 Este 24 Este 0 912 0.7 46
2019-07-31 12:00:00 25.5 10 Este 25 Este 0 912.1 1.1 44
2019-07-31 11:00:00 -- 11 Este 26 Este 0 -- -- --
2019-07-31 10:00:00 23.5 9 Este 22 Este 0 911.3 0.5 48
2019-07-31 09:00:00 22.4 3 Este 14 Sudeste 0 911 0.5 51
2019-07-31 08:00:00 18.3 6 Oeste 12 Noroeste 0 911.1 0.6 55
2019-07-31 07:00:00 18.5 5 Oeste 12 Noroeste 0 910.8 0 51
2019-07-31 06:00:00 18.7 7 Oeste 13 Noroeste 0 910.5 -0.8 45
2019-07-31 05:00:00 19.1 8 Oeste 13 Noroeste 0 910.5 -0.9 41
2019-07-31 04:00:00 19 8 Oeste 12 Oeste 0 910.8 -1.1 39
2019-07-31 03:00:00 19.2 6 Oeste 12 Oeste 0 911.3 -1.1 38
2019-07-31 02:00:00 19.4 8 Oeste 11 Oeste 0 911.4 -0.7 39
2019-07-31 01:00:00 19.6 8 Oeste 10 Oeste 0 911.9 0.7 39
2019-07-31 00:00:00 20.2 7 Oeste 12 Oeste 0 912.4 1.6 38
2019-07-30 23:00:00 21.6 6 Oeste 10 Oeste 0 912.1 1.4 35
2019-07-30 22:00:00 24.6 4 Oeste 15 Sudoeste 0 911.2 0.3 32
2019-07-30 21:00:00 26.4 5 Sudoeste 13 Sudoeste 0 910.8 -0.4 33
2019-07-30 20:00:00 28.5 3 Oeste 10 Noroeste 0 910.7 -0.7 32
2019-07-30 19:00:00 29.1 4 Oeste 16 Noroeste 0 910.9 -0.6 32
2019-07-30 18:00:00 30 4 Oeste 16 Sudoeste 0 911.2 -0.7 32
2019-07-30 17:00:00 30.6 5 Oeste 19 Oeste 0 911.4 -0.8 32
2019-07-30 16:00:00 30.7 5 Oeste 19 Oeste 0 911.5 -1.1 33
2019-07-30 15:00:00 30 5 Oeste 19 Noroeste 0 911.9 -0.7 33
2019-07-30 14:00:00 29.5 5 Noroeste 17 Este 0 912.2 -0.3 34
2019-07-30 13:00:00 28.8 8 Este 18 Este 0 912.6 0.2 34
2019-07-30 12:00:00 27.3 7 Este 18 Este 0 912.6 0.4 36
2019-07-30 11:00:00 26 5 Este 14 Este 0 912.5 0.5 39
2019-07-30 10:00:00 23.5 6 Este 11 Nordeste 0 912.4 0.4 42
2019-07-30 09:00:00 20.1 0 Calma 10 Noroeste 0 912.2 0.3 52
2019-07-30 08:00:00 16.1 8 Oeste 10 Noroeste 0 912 -0.1 57
2019-07-30 07:00:00 15.3 6 Oeste 12 Noroeste 0 912 -0.4 55
2019-07-30 06:00:00 15.9 7 Oeste 11 Oeste 0 911.9 -0.5 55
2019-07-30 05:00:00 16 8 Oeste 13 Oeste 0 912.1 -0.5 55
2019-07-30 04:00:00 16.4 8 Oeste 12 Oeste 0 912.4 -0.2 54
2019-07-30 03:00:00 18.6 6 Oeste 10 Oeste 0 912.4 -0.2 49
2019-07-30 02:00:00 20.9 2 Oeste 8 Sur 0 912.6 0.2 46
2019-07-30 01:00:00 22.1 0 Calma 23 Oeste 0 912.6 0.7 45
2019-07-30 00:00:00 22.7 8 Noroeste 22 Sudoeste 0 912.6 1.1 46
2019-07-29 23:00:00 21.5 8 Sudoeste 18 Sudoeste 0 912.4 1 56
2019-07-29 22:00:00 21.5 6 Oeste 18 Oeste 0 911.9 0.8 56
2019-07-29 21:00:00 23.3 7 Oeste 20 Sudoeste 0 911.5 0.3 46
2019-07-29 20:00:00 25.7 5 Oeste 18 Sudoeste 0 911.4 0.2 39
2019-07-29 19:00:00 27 5 Sudoeste 19 Noroeste 0 911.1 -0.5 41
2019-07-29 18:00:00 27.7 5 Oeste 22 Nordeste 0 911.2 -0.6 41
2019-07-29 17:00:00 28.5 0 Calma 23 Este 0 911.2 -0.6 40
2019-07-29 16:00:00 28.2 0 Calma 24 Este 0 911.6 -0.5 40
2019-07-29 15:00:00 26.5 10 Este 26 Este 0 911.8 0 42
2019-07-29 14:00:00 26.5 2 Este 23 Sudeste 0 911.8 0.2 46
2019-07-29 13:00:00 25.4 10 Este 19 Este 0 912.1 0.9 49
2019-07-29 12:00:00 23.7 8 Este 15 Este 0 911.8 0.9 55
2019-07-29 11:00:00 22.6 5 Este 11 Este 0 911.6 1.1 59
2019-07-29 10:00:00 21.2 3 Este 10 Este 0 911.2 0.9 59
2019-07-29 09:00:00 19.6 2 Noroeste 10 Oeste 0 910.9 0.9 65
2019-07-29 08:00:00 15.9 7 Oeste 12 Oeste 0 910.5 0.7 73
2019-07-29 07:00:00 15.3 6 Oeste 12 Noroeste 0 910.3 0.4 74
2019-07-29 06:00:00 15.8 7 Oeste 12 Noroeste 0 910 -0.3 71
2019-07-29 05:00:00 17.1 6 Oeste 14 Noroeste 0 909.8 -0.5 70
2019-07-29 04:00:00 16.5 5 Oeste 12 Noroeste 0 909.9 -0.5 69
2019-07-29 03:00:00 16.7 5 Oeste 9 Oeste 0 910.3 -0.3 77
2019-07-29 02:00:00 17.3 5 Oeste 10 Noroeste 0 910.3 -0.2 75
2019-07-29 01:00:00 17.3 4 Oeste 12 Oeste 0 910.4 0.5 78
2019-07-29 00:00:00 16.8 6 Oeste 10 Noroeste 0 910.6 1.3 82
2019-07-28 23:00:00 16.6 6 Oeste 10 Noroeste 0 910.5 1.7 81
2019-07-28 22:00:00 17.9 5 Noroeste 13 Oeste 0 909.9 1.1 74
2019-07-28 21:00:00 19.8 8 Oeste 18 Oeste 0 909.3 0.5 65
2019-07-28 20:00:00 21.5 8 Oeste 19 Sudoeste 0 908.8 -0.1 58
2019-07-28 19:00:00 23.7 6 Oeste 19 Oeste 0 908.8 -0.4 52
2019-07-28 18:00:00 24.2 8 Sudoeste 24 Sudoeste 0 908.8 -0.4 50
2019-07-28 17:00:00 25.2 6 Sudoeste 24 Sudoeste 0 908.9 -0.4 48
2019-07-28 16:00:00 24.9 8 Oeste 24 Oeste 0 909.2 -0.3 51
2019-07-28 15:00:00 24 7 Oeste 23 Noroeste 0 909.2 -0.5 53
2019-07-28 14:00:00 24.5 5 Oeste 17 Sudoeste 0 909.3 -0.3 53
2019-07-28 13:00:00 23.5 3 Sudeste 14 Este 0.1 909.5 0 53
2019-07-28 12:00:00 21.4 5 Este 18 Este 0 909.7 0.3 60
2019-07-28 11:00:00 19.4 6 Este 14 Nordeste 0 909.6 0.3 70
2019-07-28 10:00:00 17.8 4 Este 11 Este 0 909.5 0.3 80
2019-07-28 09:00:00 15.6 0 Calma 9 Noroeste 0 909.4 0.4 91
2019-07-28 08:00:00 13.6 6 Oeste 11 Noroeste 0 909.3 0.1 96
2019-07-28 07:00:00 12.9 5 Oeste 11 Oeste 0 909.2 -0.2 96
2019-07-28 06:00:00 13.3 6 Oeste 10 Oeste 0 909 -0.9 96
2019-07-28 05:00:00 14.3 3 Oeste 13 Oeste 0.1 909.2 -1.1 96
2019-07-28 04:00:00 14.8 8 Oeste 21 Sudoeste 0 909.4 -1.3 96
2019-07-28 03:00:00 15.3 5 Oeste 19 Sudoeste 0 909.9 -0.8 96
2019-07-28 02:00:00 16 4 Sudoeste 13 Sudoeste 0 910.3 -0.5 96
2019-07-28 01:00:00 16.2 4 Oeste 18 Sudoeste 0 910.7 0.3 96
2019-07-28 00:00:00 16.4 7 Sudoeste 20 Sudoeste 0 910.7 0.7 96
2019-07-27 23:00:00 16.6 7 Oeste 20 Sudoeste 0 910.8 0.7 96
2019-07-26 12:00:00 22.8 8 Sudoeste 20 Oeste 0 913.5 0.8 71
2019-07-26 11:00:00 22.3 6 Oeste 21 Sudoeste 0 913.1 0.5 73
2019-07-26 10:00:00 20.7 9 Noroeste 18 Noroeste 0 913.1 0.6 73
2019-07-26 09:00:00 19.4 0 Calma 14 Noroeste 0 912.7 0 66
2019-07-26 08:00:00 17 6 Oeste 10 Oeste 0 912.6 0.1 77
2019-07-26 07:00:00 17 5 Oeste 9 Oeste 0 912.5 -0.5 73
2019-07-26 06:00:00 17 5 Oeste 10 Oeste 0 912.7 -0.4 58
2019-07-26 05:00:00 18.2 6 Oeste 13 Oeste 0 912.5 -1.3 51
2019-07-26 04:00:00 18.1 8 Oeste 19 Oeste 0 913 -0.6 78
2019-07-26 03:00:00 20 6 Oeste 14 Oeste 0 913.1 -0.4 65
2019-07-26 02:00:00 20.2 6 Oeste 18 Oeste 0 913.8 0.3 63
2019-07-26 01:00:00 20 5 Oeste 13 Oeste 0 913.6 0.1 60
2019-07-26 00:00:00 20.3 8 Oeste 13 Oeste 0 913.5 0.4 58
2019-07-25 23:00:00 20.7 6 Oeste 14 Sudoeste 0 913.5 0.8 60
2019-07-25 22:00:00 21 6 Oeste 18 Sudoeste 0 913.5 0.8 69
2019-07-25 21:00:00 23 7 Oeste 21 Sur 0 913.1 0.2 66
2019-07-25 20:00:00 25.1 7 Oeste 19 Sudoeste 0 912.7 -0.4 67
2019-07-25 19:00:00 26.4 7 Oeste 20 Oeste 0 912.7 -0.5 64
2019-07-25 18:00:00 27.6 8 Oeste 24 Sudoeste 0 912.9 -0.6 61
2019-07-25 17:00:00 28.7 8 Oeste 20 Oeste 0 913.1 -0.4 54
2019-07-25 16:00:00 29.6 8 Oeste 21 Oeste 0 913.2 -0.6 48
2019-07-25 15:00:00 29.6 8 Oeste 20 Sudoeste 0 913.5 0 47
2019-07-25 14:00:00 30.3 2 Oeste 18 Oeste 0 913.5 0.2 43
2019-07-25 13:00:00 28.8 7 Oeste 17 Oeste 0 913.8 0.7 45
2019-07-25 12:00:00 29 5 Este 16 Este 0 913.5 0.6 45
2019-07-25 11:00:00 27.7 6 Este 14 Este 0 913.3 0.6 48
2019-07-25 10:00:00 25.2 4 Este 8 Este 0 913.1 0.6 51
2019-07-25 09:00:00 23.1 4 Noroeste 12 Oeste 0 912.9 0.5 58
2019-07-25 08:00:00 19.1 7 Oeste 13 Oeste 0 912.7 0 62
2019-07-25 07:00:00 18.5 7 Oeste 12 Oeste 0 912.5 -0.5 60
2019-07-25 06:00:00 18.5 8 Oeste 12 Oeste 0 912.4 -0.8 59
2019-07-25 05:00:00 19.5 7 Oeste 12 Oeste 0 912.7 -0.9 56
2019-07-25 04:00:00 19.7 7 Oeste 13 Oeste 0 913 -0.7 55
2019-07-25 03:00:00 19.7 7 Oeste 13 Noroeste 0 913.2 -0.6 53
2019-07-25 02:00:00 20.8 4 Oeste 14 Oeste 0 913.6 0 51
2019-07-25 01:00:00 20.4 7 Oeste 12 Sudeste 0 913.7 0.8 49
2019-07-25 00:00:00 25.3 5 Este 20 Sudeste 0 913.8 1.5 43
2019-07-24 23:00:00 24.5 3 Este 12 Este 0 913.6 1.4 46
2019-07-24 22:00:00 24.4 0 Calma 11 Sur 0 912.9 0.7 52
2019-07-24 21:00:00 26 6 Oeste 12 Oeste 0 912.3 -0.3 49
2019-07-24 20:00:00 28.2 6 Oeste 14 Noroeste 0 912.2 -0.9 44
2019-07-24 19:00:00 30 3 Oeste 13 Noroeste 0 912.2 -1.1 42
2019-07-24 18:00:00 30.8 3 Nordeste 16 Este 0 912.6 -0.9 40
2019-07-24 17:00:00 32 0 Calma 18 Este 0 913.1 -0.7 39
2019-07-24 16:00:00 31.9 2 Oeste 19 Noroeste 0 913.3 -0.5 41
2019-07-24 15:00:00 30.7 3 Nordeste 19 Este 0 913.5 -0.4 40
2019-07-24 14:00:00 30.8 3 Nordeste 17 Este 0 913.8 0.2 40
2019-07-24 13:00:00 30.1 7 Este 23 Nordeste 0 913.8 0.2 38
2019-07-24 12:00:00 29.4 5 Nordeste 22 Este 0 913.9 0.5 38
2019-07-24 11:00:00 28.5 6 Nordeste 18 Este 0 913.6 0.4 38
2019-07-24 10:00:00 26.5 7 Nordeste 27 Este 0 913.6 0.5 40
2019-07-24 09:00:00 23.7 0 Calma 7 Oeste 0 913.4 0.2 50
2019-07-24 08:00:00 19.5 4 Oeste 12 Oeste 0 913.2 -0.2 60
2019-07-24 07:00:00 19 8 Oeste 11 Oeste 0 913.1 -0.9 58
2019-07-24 06:00:00 20.6 3 Oeste 11 Oeste 0 913.2 -1 59
2019-07-24 05:00:00 19.7 8 Oeste 10 Oeste 0 913.4 -1.2 58
2019-07-24 04:00:00 21.9 4 Oeste 12 Sur 0 914 -0.7 51
2019-07-24 03:00:00 24 3 Sudeste 10 Este 0 914.2 -0.6 48
2019-07-24 02:00:00 24 0 Calma 13 Este 0 914.6 0.2 46
2019-07-24 01:00:00 25.9 4 Este 15 Este 0 914.7 0.8 43
2019-07-24 00:00:00 26.1 5 Sudeste 15 Sur 0 914.8 1.3 44
2019-07-23 23:00:00 23.2 0 Calma 6 Este 0 914.4 1.1 76
2019-07-23 22:00:00 24.4 3 Noroeste 8 Nordeste 0 913.9 0.6 70
2019-07-23 21:00:00 27 0 Calma 12 Noroeste 0 913.5 -0.3 61
2019-07-23 20:00:00 28 6 Oeste 15 Noroeste 0 913.3 -0.8 50
2019-07-23 19:00:00 30.6 4 Sudeste 24 Este 0 913.3 -1 38
2019-07-23 18:00:00 31.1 9 Este 23 Nordeste 0 913.8 -0.8 38
2019-07-23 17:00:00 31.3 8 Este 23 Este 0 914.1 -0.5 38
2019-07-23 16:00:00 31.8 8 Este 25 Este 0 914.3 -0.4 40
2019-07-23 15:00:00 30.9 8 Nordeste 23 Este 0 914.6 0.1 41
2019-07-23 14:00:00 30.6 9 Este 23 Este 0 914.6 0.2 43
2019-07-23 13:00:00 30 5 Nordeste 27 Este 0 914.7 0.4 44
2019-07-23 12:00:00 28.9 6 Nordeste 18 Este 0 914.5 0 44
2019-07-23 11:00:00 28.2 2 Norte 13 Este 0 914.4 -0.1 46
2019-07-23 10:00:00 26.6 5 Nordeste 16 Este 0 914.3 0 48
2019-07-23 09:00:00 24.5 2 Nordeste 16 Sur 0 914.5 0.3 49
2019-07-23 08:00:00 24.3 5 Este 22 Sur 0 914.5 0.2 49
2019-07-23 07:00:00 22.8 0 Calma 17 Este 0 914.3 -0.3 49
2019-07-23 06:00:00 24.4 6 Nordeste 22 Este 0 914.2 -0.4 48
2019-07-23 05:00:00 24.9 6 Nordeste 21 Este 0 914.3 -0.6 48
2019-07-23 04:00:00 25.4 6 Este 31 Este 0 914.6 -0.8 47
2019-07-23 03:00:00 25.8 13 Este 36 Este 0 914.6 -1.1 49
2019-07-23 02:00:00 24.6 4 Oeste 13 Sudoeste 0 914.9 -0.9 53
2019-07-23 01:00:00 25.4 3 Sudoeste 18 Sur 0 915.4 0.4 50
2019-07-23 00:00:00 24.3 4 Nordeste 25 Este 0 915.7 1.1 55
2019-07-22 23:00:00 25.2 8 Nordeste 32 Este 0 915.8 1.6 49
2019-07-22 22:00:00 25.8 10 Sudeste 24 Sudeste 0 915 0.4 48
2019-07-22 21:00:00 27.1 5 Este 16 Este 0 914.6 -0.4 45
2019-07-22 20:00:00 29.4 9 Este 20 Este 0 914.2 -1.5 40
2019-07-22 19:00:00 30.6 9 Este 28 Este 0 914.6 -1.5 40
2019-07-22 18:00:00 30.7 10 Nordeste 28 Este 0 915 -1.4 41
2019-07-22 17:00:00 31 9 Este 29 Este 0 915.7 -0.9 41
2019-07-22 16:00:00 30.8 11 Este 29 Este 0 916.1 -0.7 43
2019-07-22 15:00:00 30.4 6 Este 18 Este 0 916.4 -0.5 46
2019-07-22 14:00:00 28.6 8 Este 28 Este 0 916.6 0.2 50
2019-07-22 13:00:00 27.9 10 Este 27 Este 0 916.8 0.4 51
2019-07-22 12:00:00 27.2 11 Este 25 Este 0 916.9 0.5 52
2019-07-22 11:00:00 26.5 7 Nordeste 20 Nordeste 0 916.4 0.2 55
2019-07-22 10:00:00 26.1 4 Nordeste 21 Este 0 916.4 0.4 53
2019-07-22 09:00:00 24.6 3 Nordeste 11 Este 0 916.4 0.4 59
2019-07-22 08:00:00 20.9 2 Oeste 10 Oeste 0 916.2 -0.2 69
2019-07-22 07:00:00 19.6 7 Oeste 11 Oeste 0 916 -0.6 71
2019-07-22 06:00:00 20.1 7 Oeste 11 Oeste 0 916 -0.8 70
2019-07-22 05:00:00 20.6 7 Oeste 11 Noroeste 0 916.4 -0.7 68
2019-07-22 04:00:00 21.4 8 Oeste 11 Oeste 0 916.6 -0.6 66
2019-07-22 03:00:00 22.6 4 Oeste 11 Sudoeste 0 916.8 -0.3 66
2019-07-22 02:00:00 22.6 3 Oeste 10 Noroeste 0 917.1 0.4 78
2019-07-22 01:00:00 22.1 7 Oeste 10 Oeste 0 917.2 1.2 84
2019-07-22 00:00:00 21.8 5 Oeste 9 Oeste 0 917.1 1.7 83
2019-07-21 23:00:00 22.5 4 Oeste 12 Oeste 0 916.7 1.7 79
2019-07-21 22:00:00 24.4 8 Oeste 13 Noroeste 0 916 1.1 72
2019-07-21 21:00:00 26.3 7 Oeste 17 Sudoeste 0 915.4 0.1 65
2019-07-21 20:00:00 28.1 6 Oeste 20 Oeste 0 915 -0.6 59
2019-07-21 19:00:00 29.4 6 Oeste 18 Oeste 0 914.9 -1 55
2019-07-21 18:00:00 30.4 6 Oeste 20 Sudoeste 0 915.3 -0.7 51
2019-07-21 17:00:00 31.8 6 Sudoeste 19 Noroeste 0 915.6 -0.8 50
2019-07-21 16:00:00 30.4 8 Noroeste 23 Nordeste 0 915.9 -0.4 50
2019-07-21 15:00:00 32.1 5 Este 23 Este 0 916 -0.2 44
2019-07-21 14:00:00 30.8 5 Norte 17 Noroeste 0 916.4 0.7 45
2019-07-21 13:00:00 30.6 5 Este 23 Nordeste 0 916.3 0.6 45
2019-07-21 12:00:00 29.8 6 Este 18 Este 0 916.2 0.9 46
2019-07-21 11:00:00 28.3 3 Este 9 Este 0 915.7 0.5 49
2019-07-21 10:00:00 25.1 2 Nordeste 7 Este 0 915.7 0.7 55
2019-07-21 09:00:00 22.9 0 Calma 7 Noroeste 0 915.3 0.3 64
2019-07-21 08:00:00 20.5 5 Oeste 9 Oeste 0 915.2 0.1 64
2019-07-21 07:00:00 20.3 6 Oeste 10 Noroeste 0 915 -0.2 60
2019-07-21 06:00:00 20.4 4 Oeste 10 Oeste 0 915 -0.4 58
2019-07-21 05:00:00 20.6 7 Oeste 12 Oeste 0 915.1 -0.4 56
2019-07-21 04:00:00 21.2 4 Oeste 12 Oeste 0 915.2 -0.2 55
2019-07-21 03:00:00 22.9 7 Oeste 11 Noroeste 0 915.4 0.2 52
2019-07-21 02:00:00 23.3 6 Oeste 10 Oeste 0 915.5 0.8 53
2019-07-21 01:00:00 23.3 6 Oeste 13 Noroeste 0 915.4 1.2 53
2019-07-21 00:00:00 24.4 6 Oeste 14 Oeste 0 915.2 1.7 55
2019-07-20 23:00:00 23.9 7 Oeste 14 Noroeste 0 914.7 1.6 59
2019-07-20 22:00:00 23.9 8 Oeste 16 Noroeste 0 914.2 1.3 59
2019-07-20 21:00:00 25.4 7 Oeste 19 Sudoeste 0 913.5 0.6 55
2019-07-20 20:00:00 27.4 6 Oeste 18 Sudoeste 0 913.1 0.2 51
2019-07-20 19:00:00 29.3 6 Oeste 19 Sudoeste 0 912.9 -0.3 48
2019-07-20 18:00:00 31.5 5 Oeste 18 Sudoeste 0 912.9 -0.4 38
2019-07-20 17:00:00 32.7 5 Sudoeste 17 Oeste 0 912.9 -0.6 37
2019-07-20 16:00:00 31 7 Noroeste 19 Este 0 913.2 -0.5 37
2019-07-20 15:00:00 32.5 3 Este 18 Este 0 913.3 -0.4 34
2019-07-20 14:00:00 30.9 4 Nordeste 22 Nordeste 0 913.5 0.1 35
2019-07-20 13:00:00 30.3 5 Este 17 Nordeste 0 913.7 0.4 37
2019-07-20 12:00:00 28.6 6 Este 14 Este 0 913.7 0.8 40
2019-07-20 11:00:00 27.2 6 Este 13 Este 0 913.4 0.9 43
2019-07-20 10:00:00 24.7 2 Este 7 Nordeste 0 913.3 1.2 45
2019-07-20 09:00:00 21.9 5 Oeste 9 Oeste 0 912.9 1 52
2019-07-20 08:00:00 20.1 6 Oeste 11 Oeste 0 912.5 0.7 49
2019-07-20 07:00:00 22.6 2 Oeste 16 Este 0 912.1 0.1 42
2019-07-20 06:00:00 24.1 3 Sudeste 20 Este 0 911.9 -0.4 39
2019-07-20 05:00:00 25.7 6 Este 22 Este 0 911.8 -0.8 38
2019-07-20 04:00:00 25.3 10 Este 32 Este 0 912 -0.6 40
2019-07-20 03:00:00 24.9 6 Sudeste 22 Este 0 912.3 -0.2 41
2019-07-20 02:00:00 24.7 8 Este 20 Este 0 912.6 0.7 42
2019-07-20 01:00:00 24.5 3 Nordeste 15 Sur 0 912.6 1.3 42
2019-07-20 00:00:00 22.7 4 Oeste 9 Noroeste 0 912.5 1.5 46
2019-07-19 23:00:00 24.3 0 Calma 7 Oeste 0 911.9 1.1 43
2019-07-19 22:00:00 26.1 0 Calma 7 Norte 0 911.3 0.5 41
2019-07-19 21:00:00 27.7 2 Noroeste 8 Este 0 911 0.1 38
2019-07-19 20:00:00 29.5 3 Nordeste 14 Este 0 910.8 -0.2 36
2019-07-19 19:00:00 30.3 4 Nordeste 17 Este 0 910.8 -0.5 36
2019-07-19 18:00:00 31.4 4 Nordeste 20 Nordeste 0 910.9 -0.9 34
2019-07-19 17:00:00 31.7 3 Nordeste 19 Este 0 911 -1.2 34
2019-07-19 16:00:00 31.8 6 Este 20 Este 0 911.3 -1.2 34
2019-07-19 15:00:00 31.3 6 Este 27 Este 0 911.8 -0.7 36
2019-07-19 14:00:00 30.8 5 Este 21 Nordeste 0 912.2 0.1 36
2019-07-19 13:00:00 29.7 11 Este 27 Este 0 912.5 0.1 37
2019-07-19 12:00:00 28.4 11 Este 26 Este 0 912.5 0.3 38
2019-07-19 11:00:00 27.6 10 Este 29 Este 0 912.1 0 39
2019-07-19 10:00:00 26 9 Este 20 Este 0 912.4 0.2 39
2019-07-19 09:00:00 24.6 2 Nordeste 15 Este 0 912.2 0.3 36
2019-07-19 08:00:00 24.4 9 Este 23 Este 0 912.1 0.2 36
2019-07-19 07:00:00 17.5 8 Oeste 12 Oeste 0 912.2 -0.2 45
2019-07-19 06:00:00 20.2 3 Oeste 11 Sur 0 911.9 -0.7 39
2019-07-19 05:00:00 23.2 4 Sudeste 13 Sur 0 911.9 -1 38
2019-07-19 04:00:00 18.6 4 Oeste 12 Oeste 0 912.4 -0.7 53
2019-07-19 03:00:00 18.7 8 Oeste 12 Noroeste 0 912.6 -0.4 63
2019-07-19 02:00:00 19.1 7 Oeste 11 Oeste 0 912.9 0.2 74
2019-07-19 01:00:00 19.3 7 Oeste 10 Oeste 0 913.1 0.7 77
2019-07-19 00:00:00 20.1 6 Oeste 10 Oeste 0 913 0.8 74